Racecast

Jeron Plummer

Hickory Ridge (NC) · 12 · SW4ANC D7ACABARRUS4A · Compare head to head

Athlete rating 117.7 2019 TF season
Best race 122.7 TF
Races 66
Seasons 5 2015 — 2019

RankedNation #26953·NC #634·NC D7A #163·SW4A #3·Team #5 ?

Speed rating — all races

Cross Country

XC speed rating

2018 XC 107.0

Hickory Ridge (NC) · Grade 12

Date Meet Event Result Place Rating Difficulty PR/SR Flags
2018-10-27 Ivey Redmon Sports Complex 5000m 20:37.5 97th · 7th on team 101.7 +0.010
2018-10-17 Myers Park High School 4828m 18:36.1 26th · 4th on team 108.3 +0.004 ★PR ★CR SR CSR
2018-10-13 Ivey Redmon Sports Complex 5000m 19:40.6 109th · 6th on team 106.3 +0.010 CSR
2018-10-06 McAlpine Creek Park 5000m 19:41.5 121st · 7th on team 106.4 +0.002
2018-10-02 Frank Lisk Park 5000m 18:58 19th · 4th on team 112.5 +0.022 SR CSR RSR
2018-09-25 Frank Lisk Park 5000m 20:01.2 26th · 6th on team 105.8 +0.022 CSR
2018-09-22 McAlpine Creek Park 5000m 19:12.3 182nd · 5th on team 109.3 +0.002 SR CSR RSR
2018-09-13 Central Cabarrus HS 5000m 20:26 9th · 6th on team 106.7 +0.057 CSR
2018-09-04 Frank Lisk Park 3218m 12:43 22nd · 3rd on team 106.7 +0.066 SR CSR
2018-08-30 Frank Lisk Park 5000m 20:02.1 11th · 5th on team 106.1 +0.022 CSR
2018-08-25 McAlpine Creek Park 5000m 19:27.1 63rd · 4th on team 107.2 +0.002 SR CSR RSR
2018-08-18 Cuthbertson HS 5000m 19:40.5 33rd · 4th on team 106.6 +0.017 ★CR SR CSR RSR

2017 XC 108.8

Hickory Ridge (NC) · Grade 11

Date Meet Event Result Place Rating Difficulty PR/SR Flags
2017-10-28 Ivey Redmon Sports Complex 5000m 19:13.7 78th · 7th on team 108.5 +0.010
2017-10-17 Myers Park High School 5000m 19:36.3 31st · 5th on team 113.2 +0.079 ★CR R CSR RSR
2017-10-14 Ivey Redmon Sports Complex 5000m 19:07.8 60th · 5th on team 107.8 +0.010 ★CR CSR
2017-10-07 McAlpine Creek Park 5000m 18:49.5 123rd · 5th on team 108.7 +0.002 ★CR CSR
2017-10-03 Frank Lisk Park 5000m 18:39 13th · 5th on team 112.1 +0.022 ★PR ★CR R SR CSR RSR
2017-09-26 Frank Lisk Park 5000m 19:08.1 3rd · 3rd on team 109.8 +0.022 PR CR R SR CSR RSR
2017-09-23 McAlpine Creek Park 5000m 19:22.7 163rd · 7th on team 107.8 +0.002 PR CR SR CSR RSR
2017-09-05 Frank Lisk Park 3218m 12:39 12th · 2nd on team 106.9 +0.066 ★PR ★CR SR CSR RSR
2017-08-19 Cuthbertson HS 5000m 20:15 43rd · 5th on team 104.2 +0.017 CR SR CSR RSR

2016 XC 105.2

Hickory Ridge (NC) · Grade 10

Date Meet Event Result Place Rating Difficulty PR/SR Flags
2016-10-29 McAlpine Creek Park 5000m 19:48 125th · 6th on team 104.9 +0.002 PR CR SR CSR
2016-10-18 Salisbury Community Park 5000m 20:00 6th · 2nd on team 108.4 +0.042 ★CR R CSR RSR
2016-10-06 A.L. Brown High School 5000m 19:54 29th · 7th on team 105.7 +0.021 PR ★CR SR CSR
2016-10-01 McAlpine Creek Park 5000m 19:59.2 185th · 6th on team 103.5 +0.002 PR CR SR CSR
2016-09-20 Central Cabarrus HS 5000m 20:20.6 19th · 6th on team 107.3 +0.057 ★CR R CSR RSR
2016-09-10 Cannon School 5000m 20:11 23rd · 2nd on team 105.7 +0.035 PR ★CR R SR CSR RSR
2016-09-06 Frank Lisk Park 3200m 12:55.2 14th · 3rd on team 104.2 +0.066 ★PR ★CR R SR CSR RSR
2016-08-30 West Rowan High School 5000m 22:21 54th · 5th on team 101.4 +0.099 ★CR SR CSR RSR

2015 XC 99.3

Hickory Ridge (NC) · Grade 9

Date Meet Event Result Place Rating Difficulty PR/SR Flags
2015-09-12 Cannon School 5000m 21:18 42nd · 5th on team 99.3 +0.035 PR CR R SR CSR RSR

Track & Field

TF speed rating

2019 TF 110.3

Hickory Ridge (NC) · Grade 12

Date Meet Event Result Place Rating Difficulty PR/SR Flags
2019-05-04 2019 Buccaneer Last Chance Classic at Country Day 800m 2:07.71 10th · 1st on team 119.1 -0.035
2019-04-17 Cabarrus County T&F Championships 800m 2:05.43 2nd · 2nd on team 122.7 -0.025 ★PR ★R SR RSR
2019-04-10 AK Midweek Meet #2 800m 2:13.8 11th · 2nd on team 115.0 -0.027
2019-04-10 AK Midweek Meet #2 1600m 5:07.72 21st · 3rd on team 112.5 -0.027 ★PR SR
2019-03-28 Vance Home Meet 1600m 5:22.4 9th · 4th on team 107.2 -0.025
2019-03-13 Ardrey Kell Midweek Meet 1600m 5:07.83 5th · 3rd on team 111.9 -0.027 PR SR
2019-03-13 Ardrey Kell Midweek Meet 800m 2:11.41 3rd · 2nd on team 116.7 -0.027 PR R SR RSR
2019-03-07 MPHS #2 (Bradford Prep/Hickory Ridge/Concord FA) 800m 2:13 4th · 2nd on team 115.2 -0.025 PR R SR RSR
2019-01-28 East Rowan Polar Bear 1600m 5:45.8 9th · 4th on team 99.5 -0.029
2019-01-28 East Rowan Polar Bear 1000m 3:17 3rd · 1st on team 101.0 -0.029 ★PR SR
2018-12-19 East Rowan Polar Bear #2 1600m 5:25.7 8th · 2nd on team 105.4 -0.029 PR SR RSR
2018-12-19 East Rowan Polar Bear #2 1000m 3:23.3 4th · 1st on team 97.7 -0.029 PR SR

2018 TF 103.2

Hickory Ridge (NC) · Grade 11

Date Meet Event Result Place Rating Difficulty PR/SR Flags
2018-04-19 Rocky River home meet 4 1600m 5:29.2 15th · 7th on team 105.2 -0.025 PR SR RSR
2018-04-19 Rocky River home meet 4 800m 2:35 19th · 6th on team 99.4 -0.025
2018-03-28 Rocky River Meet 2 800m 2:24.9 7th · 3rd on team 104.4 -0.039 PR SR
2018-03-28 Rocky River Meet 2 1600m 5:32 11th · 8th on team 102.4 -0.039
2018-03-15 Rocky River Meet 1 1600m 5:31 7th · 6th on team 104.4 -0.025 SR RSR

2017 TF 101.1

Hickory Ridge (NC) · Grade 10

Date Meet Event Result Place Rating Difficulty PR/SR Flags
2017-05-06 2017 Buccaneer "Last Chance Classic" 1600m 5:43.49 33rd · 5th on team 99.5 -0.035
2017-04-29 SPC Super Make-up Meet 1600m 5:46.07 13th · 4th on team 99.3 -0.025
2017-04-27 Con,NWC,HR,JMR at West Rowan 1600m 5:51 50th · 22nd on team 98.9 -0.015
2017-04-27 Con,NWC,HR,JMR at West Rowan 3200m 12:48.1 25th · 9th on team 98.0 -0.015
2017-04-27 Con,NWC,HR,JMR at West Rowan 1600m 5:32.3 29th · 11th on team 104.5 -0.015
2017-04-27 Con,NWC,HR,JMR at West Rowan 3200m 12:00.5 19th · 6th on team 104.5 -0.015
2017-04-26 West Rowan Home Meet 1600m 5:32.25 13th · 7th on team 104.3 -0.017
2017-04-26 West Rowan Home Meet 3200m 12:00.48 10th · 4th on team 104.5 -0.017 ★PR SR
2017-04-06 East Rowan 4-6-2017 Track Meet 3200m 12:53.95 14th · 6th on team 97.3 -0.025
2017-04-06 East Rowan 4-6-2017 Track Meet 1600m 5:29.87 16th · 7th on team 105.1 -0.025 PR SR RSR
2017-03-22 CM,NWC,JMR,HR at Wesr Rowan 1600m 5:51 33rd · 11th on team 99.0 -0.015 SR RSR
2017-03-22 CM,NWC,JMR,HR at Wesr Rowan 3200m 12:48.1 13th · 4th on team 98.5 -0.015 SR

2016 TF 101.1

Hickory Ridge (NC) · Grade 9

Date Meet Event Result Place Rating Difficulty PR/SR Flags
2016-04-14 SPC Meet 2 3200m 12:11.9 7th · 3rd on team 102.4 -0.019
2016-04-06 West Rowan #3 3200m 12:14.48 8th · 2nd on team 102.6 -0.017
2016-04-06 West Rowan #3 1600m 5:45.5 28th · 14th on team 100.2 -0.017
2016-03-22 East Rowan Meet #4 1600m 5:40.06 26th · 8th on team 100.9 -0.025 PR R SR RSR
2016-03-22 East Rowan Meet #4 3200m 12:03.12 13th · 5th on team 103.0 -0.025 PR R SR RSR
2016-03-17 East Rowan Meet #3 3200m 12:26.89 10th · 6th on team 99.9 -0.025 PR R SR RSR
2016-03-17 East Rowan Meet #3 1600m 5:48.39 20th · 11th on team 98.5 -0.025 PR SR